createdAt,value
2019-01-05T00:01:17.545Z,18.30
2019-01-05T00:03:32.560Z,17.67
2019-01-05T00:05:49.305Z,14.43
2019-01-05T00:08:25.537Z,11.10
2019-01-05T00:10:46.932Z,10.55
2019-01-05T00:13:02.960Z,8.63
2019-01-05T00:15:23.069Z,6.72
2019-01-05T00:17:53.526Z,13.10
2019-01-05T00:20:21.889Z,10.70
2019-01-05T00:22:49.712Z,7.55
2019-01-05T00:25:17.500Z,11.28
2019-01-05T00:27:39.593Z,12.73
2019-01-05T00:30:01.311Z,7.10
2019-01-05T00:32:48.953Z,8.18
2019-01-05T00:35:17.005Z,8.63
2019-01-05T00:37:47.072Z,10.23
2019-01-05T00:40:06.340Z,11.75
2019-01-05T00:42:23.942Z,13.58
2019-01-05T00:44:45.978Z,12.90
2019-01-05T00:47:24.406Z,10.85
2019-01-05T00:49:47.310Z,9.65
2019-01-05T00:52:31.914Z,13.00
2019-01-05T00:55:05.864Z,16.42
2019-01-05T00:57:27.031Z,14.10
2019-01-05T00:59:55.936Z,17.43
2019-01-05T01:02:20.819Z,9.13
2019-01-05T01:04:48.612Z,15.98
2019-01-05T01:07:08.453Z,25.02
2019-01-05T01:09:32.656Z,19.25
2019-01-05T01:11:52.888Z,25.37
2019-01-05T01:14:30.805Z,15.88
2019-01-05T01:17:06.930Z,16.73
2019-01-05T01:19:26.970Z,14.00
2019-01-05T01:21:57.368Z,20.20
2019-01-05T01:24:17.430Z,14.55
2019-01-05T01:26:30.900Z,19.05
2019-01-05T01:28:50.877Z,19.80
2019-01-05T01:31:30.224Z,20.72
2019-01-05T01:33:53.157Z,12.37
2019-01-05T01:36:14.692Z,10.05
2019-01-05T01:39:15.702Z,17.98
2019-01-05T01:41:58.344Z,13.20
2019-01-05T01:44:37.694Z,16.87
2019-01-05T01:47:05.132Z,13.25
2019-01-05T01:49:39.971Z,13.88
2019-01-05T01:52:20.093Z,14.53
2019-01-05T01:54:45.357Z,11.53
2019-01-05T01:57:12.210Z,12.47
2019-01-05T02:00:11.972Z,8.28
2019-01-05T02:02:50.105Z,13.83
2019-01-05T02:05:19.837Z,6.62
2019-01-05T02:07:48.868Z,8.93
2019-01-05T02:10:17.079Z,7.28
2019-01-05T02:12:43.273Z,7.28
2019-01-05T02:15:10.376Z,9.28
2019-01-05T02:17:43.308Z,10.08
2019-01-05T02:20:20.013Z,4.60
2019-01-05T02:23:08.776Z,11.63
2019-01-05T02:25:39.277Z,12.70
2019-01-05T02:28:36.074Z,9.90
2019-01-05T02:31:26.440Z,8.05
2019-01-05T02:34:29.064Z,9.63
2019-01-05T02:37:49.131Z,11.83
2019-01-05T02:40:59.612Z,9.03
2019-01-05T02:44:05.290Z,7.30
2019-01-05T02:46:56.436Z,11.63
2019-01-05T02:49:37.193Z,13.20
2019-01-05T02:52:40.753Z,10.23
2019-01-05T02:55:40.870Z,8.95
2019-01-05T02:58:53.578Z,11.50
2019-01-05T03:02:06.397Z,11.63
2019-01-05T03:04:45.351Z,13.60
2019-01-05T03:07:47.287Z,9.25
2019-01-05T03:10:46.460Z,13.95
2019-01-05T03:13:56.814Z,12.47
2019-01-05T03:17:11.561Z,6.92
2019-01-05T03:20:15.556Z,9.78
2019-01-05T03:23:08.980Z,8.90
2019-01-05T03:26:07.053Z,12.85
2019-01-05T03:28:47.361Z,8.27
2019-01-05T03:32:18.806Z,11.95
2019-01-05T03:35:01.522Z,10.58
2019-01-05T03:37:47.561Z,5.62
2019-01-05T03:40:28.630Z,9.80
2019-01-05T03:43:25.510Z,7.10
2019-01-05T03:46:34.070Z,11.83
2019-01-05T03:49:42.431Z,8.73
2019-01-05T03:52:36.300Z,8.75
2019-01-05T03:55:34.590Z,6.30
2019-01-05T03:58:42.384Z,7.28
2019-01-05T04:02:06.685Z,9.80
2019-01-05T04:05:03.820Z,11.50
2019-01-05T04:07:53.286Z,6.03
2019-01-05T04:11:02.442Z,5.25
2019-01-05T04:13:56.571Z,6.20
2019-01-05T04:17:14.197Z,8.83
2019-01-05T04:20:16.012Z,8.38
2019-01-05T04:23:15.592Z,7.07
2019-01-05T04:26:04.032Z,9.50
2019-01-05T04:28:59.931Z,11.10
2019-01-05T04:32:14.145Z,11.70
2019-01-05T04:35:31.488Z,8.70
2019-01-05T04:38:35.468Z,7.00
2019-01-05T04:41:47.062Z,9.90
2019-01-05T04:44:46.069Z,6.90
2019-01-05T04:47:35.696Z,8.88
2019-01-05T04:50:35.763Z,9.78
2019-01-05T04:53:41.962Z,7.95
2019-01-05T04:56:49.788Z,7.97
2019-01-05T04:59:54.398Z,9.03
2019-01-05T05:02:55.725Z,8.28
2019-01-05T05:06:03.269Z,7.15
2019-01-05T05:09:07.681Z,14.18
2019-01-05T05:12:13.528Z,9.68
2019-01-05T05:15:03.513Z,11.22
2019-01-05T05:17:50.971Z,10.45
2019-01-05T05:20:47.846Z,10.48
2019-01-05T05:23:53.664Z,9.18
2019-01-05T05:27:14.081Z,14.53
2019-01-05T05:30:17.842Z,10.93
2019-01-05T05:33:19.117Z,8.75
2019-01-05T05:36:11.223Z,6.40
2019-01-05T05:39:12.437Z,7.40
2019-01-05T05:42:21.876Z,11.68
2019-01-05T05:45:30.335Z,8.53
2019-01-05T05:48:24.884Z,8.28
2019-01-05T05:51:11.353Z,10.10
2019-01-05T05:54:13.147Z,8.33
2019-01-05T05:57:14.723Z,6.60
2019-01-05T06:00:26.377Z,9.23
2019-01-05T06:03:18.013Z,10.27
2019-01-05T06:06:18.104Z,10.35
2019-01-05T06:09:05.851Z,7.53
2019-01-05T06:12:00.708Z,8.83
2019-01-05T06:15:40.673Z,6.58
2019-01-05T06:18:31.981Z,9.15
2019-01-05T06:21:36.229Z,8.50
2019-01-05T06:24:36.413Z,9.10
2019-01-05T06:27:34.469Z,7.83
2019-01-05T06:31:00.697Z,9.98
2019-01-05T06:33:48.165Z,12.50
2019-01-05T06:37:04.915Z,9.67
2019-01-05T06:40:06.136Z,11.53
2019-01-05T06:43:11.269Z,13.33
2019-01-05T06:46:28.696Z,8.00
2019-01-05T06:49:29.253Z,5.25
2019-01-05T06:52:38.036Z,13.47
2019-01-05T06:55:30.310Z,10.72
2019-01-05T06:58:21.357Z,10.80
2019-01-05T07:01:26.051Z,12.90
2019-01-05T07:04:13.820Z,16.77
2019-01-05T07:07:09.697Z,13.95
2019-01-05T07:10:24.870Z,10.85
2019-01-05T07:13:34.384Z,10.90
2019-01-05T07:16:29.428Z,11.80
2019-01-05T07:19:36.905Z,13.57
2019-01-05T07:22:30.388Z,17.70
2019-01-05T07:25:40.797Z,11.65
2019-01-05T07:28:55.524Z,18.20
2019-01-05T07:31:44.953Z,14.73
2019-01-05T07:34:53.514Z,15.88
2019-01-05T07:38:03.858Z,18.00
2019-01-05T07:41:07.737Z,18.30
2019-01-05T07:44:01.102Z,18.07
2019-01-05T07:46:49.374Z,20.80
2019-01-05T07:50:00.954Z,17.82
2019-01-05T07:52:51.781Z,23.47
2019-01-05T07:55:48.341Z,19.57
2019-01-05T07:58:36.758Z,24.65
2019-01-05T08:01:25.885Z,18.57
2019-01-05T08:04:20.928Z,23.07
2019-01-05T08:07:33.705Z,20.23
2019-01-05T08:10:37.016Z,24.70
2019-01-05T08:13:43.090Z,22.30
2019-01-05T08:16:48.017Z,20.83
2019-01-05T08:19:55.847Z,22.70
2019-01-05T08:23:00.194Z,23.40
2019-01-05T08:26:08.128Z,22.03
2019-01-05T08:29:04.955Z,22.07
2019-01-05T08:32:00.982Z,24.13
2019-01-05T08:34:52.180Z,20.53
2019-01-05T08:37:56.194Z,32.30
2019-01-05T08:41:00.901Z,16.40
2019-01-05T08:44:19.956Z,18.90
2019-01-05T08:47:17.037Z,23.17
2019-01-05T08:50:20.505Z,17.53
2019-01-05T08:53:31.084Z,38.80
2019-01-05T08:56:39.210Z,17.90
2019-01-05T08:59:35.289Z,64.40
2019-01-05T09:02:33.886Z,29.57
2019-01-05T09:05:44.482Z,22.13
2019-01-05T09:09:03.093Z,24.90
2019-01-05T09:11:54.546Z,25.50
2019-01-05T09:15:10.222Z,20.80
2019-01-05T09:18:40.037Z,18.60
2019-01-05T09:22:02.609Z,57.50
2019-01-05T09:25:19.243Z,43.57
2019-01-05T09:28:12.062Z,46.27
2019-01-05T09:31:13.227Z,30.73
2019-01-05T09:34:05.946Z,31.63
2019-01-05T09:37:13.044Z,23.03
2019-01-05T09:40:03.357Z,19.83
2019-01-05T09:43:17.347Z,22.80
2019-01-05T09:46:08.317Z,25.23
2019-01-05T09:49:04.902Z,20.63
2019-01-05T09:52:07.614Z,18.50
2019-01-05T09:55:09.916Z,18.27
2019-01-05T09:58:15.150Z,16.97
2019-01-05T10:01:31.023Z,25.77
2019-01-05T10:04:34.674Z,21.67
2019-01-05T10:07:32.107Z,20.08
2019-01-05T10:10:32.369Z,18.53
2019-01-05T10:13:43.620Z,19.77
2019-01-05T10:16:29.241Z,13.70
2019-01-05T10:19:34.380Z,21.63
2019-01-05T10:22:44.500Z,22.93
2019-01-05T10:25:54.641Z,22.97
2019-01-05T10:28:56.637Z,28.33
2019-01-05T10:32:09.596Z,19.37
2019-01-05T10:35:10.592Z,23.17
2019-01-05T10:38:08.077Z,22.53
2019-01-05T10:41:17.049Z,22.53
2019-01-05T10:44:26.746Z,21.77
2019-01-05T10:47:24.077Z,23.40
2019-01-05T10:50:18.933Z,45.70
2019-01-05T10:53:05.863Z,18.63
2019-01-05T10:56:20.358Z,20.57
2019-01-05T10:59:17.374Z,34.47
2019-01-05T11:02:39.770Z,18.60
2019-01-05T11:21:59.961Z,21.60
2019-01-05T11:25:08.456Z,18.53
2019-01-05T11:28:05.346Z,20.43
2019-01-05T11:30:49.625Z,29.20
2019-01-05T11:33:51.864Z,20.13
2019-01-05T11:37:09.470Z,17.90
2019-01-05T11:40:23.879Z,22.53
2019-01-05T11:43:00.939Z,13.63
2019-01-05T11:46:07.783Z,23.57
2019-01-05T11:49:10.525Z,14.00
2019-01-05T11:52:11.297Z,36.47
2019-01-05T11:55:18.783Z,35.23
2019-01-05T11:58:09.332Z,19.23
2019-01-05T12:01:32.334Z,22.57
2019-01-05T12:04:33.134Z,18.00
2019-01-05T12:08:00.141Z,23.73
2019-01-05T12:11:13.291Z,21.23
2019-01-05T12:14:35.914Z,23.17
2019-01-05T12:17:39.322Z,27.60
2019-01-05T12:20:34.774Z,19.93
2019-01-05T12:23:29.063Z,14.20
2019-01-05T12:26:40.568Z,24.33
2019-01-05T12:30:05.941Z,20.90
2019-01-05T12:33:18.246Z,20.30
2019-01-05T12:36:17.075Z,15.13
2019-01-05T12:39:14.611Z,14.47
2019-01-05T12:42:11.955Z,26.93
2019-01-05T12:45:10.193Z,20.90
2019-01-05T12:48:06.603Z,24.80
2019-01-05T12:51:12.449Z,28.57
2019-01-05T12:54:13.628Z,24.30
2019-01-05T12:57:06.155Z,28.77
2019-01-05T13:00:02.793Z,24.03
2019-01-05T13:03:09.823Z,45.17
2019-01-05T13:06:21.192Z,28.87
2019-01-05T13:09:37.988Z,20.70
2019-01-05T13:12:47.951Z,21.27
2019-01-05T13:15:48.107Z,15.90
2019-01-05T13:19:06.068Z,28.83
2019-01-05T13:22:13.570Z,28.63
2019-01-05T13:25:17.457Z,23.03
2019-01-05T13:28:34.809Z,26.17
2019-01-05T13:37:00.306Z,24.93
2019-01-05T13:40:04.161Z,20.73
2019-01-05T13:43:02.090Z,29.20
2019-01-05T13:46:04.165Z,23.90
2019-01-05T13:49:07.957Z,28.47
2019-01-05T13:52:23.677Z,32.20
2019-01-05T13:55:28.222Z,25.40
2019-01-05T14:22:58.549Z,33.17
2019-01-05T14:25:32.340Z,21.07
2019-01-05T14:27:50.554Z,23.63
2019-01-05T14:38:56.139Z,23.63
2019-01-05T14:41:15.519Z,23.43
2019-01-05T14:43:37.554Z,18.73
2019-01-05T14:46:01.941Z,16.23
2019-01-05T14:53:59.533Z,21.33
2019-01-05T15:00:24.802Z,30.10
2019-01-05T15:06:20.457Z,25.03
2019-01-05T15:08:40.429Z,29.07
2019-01-05T15:11:28.119Z,24.53
2019-01-05T15:14:07.227Z,32.90
2019-01-05T15:16:46.802Z,24.73
2019-01-05T15:19:13.732Z,22.20
2019-01-05T15:25:26.583Z,28.07
2019-01-05T15:30:12.690Z,24.50
2019-01-05T15:48:45.564Z,26.00
2019-01-05T15:51:01.709Z,23.27
2019-01-05T15:53:21.489Z,26.90
2019-01-05T16:02:54.973Z,27.83
2019-01-05T16:12:34.330Z,34.13
2019-01-05T16:15:59.793Z,21.03
2019-01-05T16:28:08.312Z,28.30
2019-01-05T16:36:01.330Z,23.47
2019-01-05T16:38:22.467Z,17.77
2019-01-05T16:40:55.586Z,28.97
2019-01-05T16:43:15.749Z,22.07
2019-01-05T16:45:40.017Z,29.80
2019-01-05T16:48:19.492Z,36.10
2019-01-05T16:50:52.198Z,31.50
2019-01-05T16:53:17.250Z,33.63
2019-01-05T16:55:44.310Z,26.70
2019-01-05T16:58:11.517Z,26.53
2019-01-05T17:30:03.960Z,38.23
2019-01-05T17:33:20.098Z,38.87
2019-01-05T17:43:14.876Z,30.67
2019-01-05T17:46:14.250Z,30.40
2019-01-05T17:48:47.659Z,25.93
2019-01-05T17:51:12.274Z,28.50
2019-01-05T17:53:52.262Z,20.63
2019-01-05T17:56:22.966Z,28.23
2019-01-05T17:58:56.723Z,24.30
2019-01-05T18:01:34.717Z,29.77
2019-01-05T18:03:57.041Z,31.67
2019-01-05T18:06:12.398Z,36.83
2019-01-05T18:08:32.993Z,31.77
2019-01-05T18:10:53.217Z,35.80
2019-01-05T18:13:23.658Z,35.33
2019-01-05T18:15:43.618Z,30.33
2019-01-05T18:18:13.842Z,29.53
2019-01-05T18:20:38.448Z,30.47
2019-01-05T18:23:09.788Z,28.50
2019-01-05T18:25:25.263Z,36.57
2019-01-05T18:27:54.410Z,38.40
2019-01-05T18:30:16.775Z,36.43
2019-01-05T18:32:40.920Z,28.73
2019-01-05T18:35:00.196Z,37.57
2019-01-05T18:37:34.767Z,33.77
2019-01-05T18:39:54.637Z,33.13
2019-01-05T18:42:21.988Z,37.27
2019-01-05T18:44:42.248Z,27.73
2019-01-05T18:47:01.596Z,30.63
2019-01-05T18:49:22.752Z,32.93
2019-01-05T18:52:02.078Z,37.03
2019-01-05T18:54:22.492Z,32.80
2019-01-05T18:56:42.761Z,29.47
2019-01-05T18:59:22.196Z,36.90
2019-01-05T19:01:42.268Z,26.17
2019-01-05T19:04:02.461Z,24.40
2019-01-05T19:06:54.398Z,38.30
2019-01-05T19:09:27.349Z,30.60
2019-01-05T19:11:47.718Z,37.40
2019-01-05T19:14:07.661Z,27.63
2019-01-05T19:16:27.613Z,32.53
2019-01-05T19:18:46.679Z,27.80
2019-01-05T19:21:30.251Z,29.60
2019-01-05T19:23:50.424Z,37.87
2019-01-05T19:25:59.946Z,32.23
2019-01-05T19:28:24.361Z,28.93
2019-01-05T19:30:48.600Z,43.93
2019-01-05T19:33:10.980Z,29.87
2019-01-05T19:35:38.021Z,34.07
2019-01-05T19:37:55.150Z,44.53
2019-01-05T19:40:14.792Z,38.40
2019-01-05T19:42:34.676Z,35.73
2019-01-05T19:48:06.879Z,36.60
2019-01-05T19:50:48.714Z,46.50
2019-01-05T19:53:39.542Z,44.07
2019-01-05T19:56:05.279Z,40.70
2019-01-05T19:58:27.024Z,42.07
2019-01-05T20:00:51.367Z,36.77
2019-01-05T20:03:07.954Z,42.43
2019-01-05T20:05:29.498Z,45.67
2019-01-05T20:07:54.034Z,36.87
2019-01-05T20:10:14.070Z,48.17
2019-01-05T20:18:12.276Z,53.57
2019-01-05T20:20:36.579Z,40.83
2019-01-05T20:23:51.833Z,48.97
2019-01-05T20:26:27.807Z,50.80
2019-01-05T20:28:52.002Z,47.50
2019-01-05T20:32:03.029Z,42.33
2019-01-05T20:37:50.664Z,45.77
2019-01-05T20:40:32.925Z,50.17
2019-01-05T20:43:14.269Z,73.07
2019-01-05T20:45:51.872Z,56.77
2019-01-05T20:48:06.753Z,70.87
2019-01-05T20:50:36.134Z,42.23
2019-01-05T20:52:56.397Z,58.57
2019-01-05T20:55:13.369Z,63.50
2019-01-05T20:57:40.390Z,52.77
2019-01-05T21:00:00.785Z,57.60
2019-01-05T21:02:25.105Z,58.80
2019-01-05T21:04:53.681Z,52.03
2019-01-05T21:07:15.119Z,56.83
2019-01-05T21:09:34.905Z,50.73
2019-01-05T21:12:02.174Z,49.37
2019-01-05T21:14:22.116Z,54.47
2019-01-05T21:16:42.144Z,44.43
2019-01-05T21:19:21.660Z,63.13
2019-01-05T21:21:43.348Z,63.93
2019-01-05T21:23:58.821Z,43.87
2019-01-05T21:26:27.188Z,45.97
2019-01-05T21:28:47.419Z,50.33
2019-01-05T21:31:23.921Z,50.90
2019-01-05T21:33:54.382Z,60.00
2019-01-05T21:36:14.481Z,39.80
2019-01-05T21:38:34.547Z,45.30
2019-01-05T21:40:54.752Z,50.93
2019-01-05T21:43:22.130Z,37.10
2019-01-05T21:45:42.047Z,41.83
2019-01-05T21:48:02.437Z,33.00
2019-01-05T21:50:22.829Z,41.73
2019-01-05T21:52:47.282Z,44.65
2019-01-05T21:55:10.867Z,40.03
2019-01-05T21:57:30.253Z,45.13
2019-01-05T21:59:54.087Z,39.10
2019-01-05T22:02:15.783Z,44.97
2019-01-05T22:04:39.713Z,50.27
2019-01-05T22:06:59.970Z,43.78
2019-01-05T22:09:20.584Z,51.00
2019-01-05T22:11:48.057Z,44.80
2019-01-05T22:14:15.605Z,54.93
2019-01-05T22:16:52.185Z,44.03
2019-01-05T22:19:13.589Z,46.23
2019-01-05T22:21:35.076Z,39.87
2019-01-05T22:23:55.229Z,46.77
2019-01-05T22:26:25.425Z,41.63
2019-01-05T22:28:45.500Z,39.20
2019-01-05T22:31:06.915Z,41.37
2019-01-05T22:33:27.041Z,36.00
2019-01-05T22:35:47.237Z,53.43
2019-01-05T22:38:08.789Z,40.07
2019-01-05T22:40:28.493Z,36.33
2019-01-05T22:42:58.810Z,35.60
2019-01-05T22:45:20.254Z,34.60
2019-01-05T22:47:40.470Z,31.63
2019-01-05T22:49:55.664Z,24.17
2019-01-05T22:52:18.436Z,24.63
2019-01-05T22:54:42.495Z,23.10
2019-01-05T22:57:03.943Z,24.53
2019-01-05T22:59:28.335Z,26.57
2019-01-05T23:01:45.447Z,24.03
2019-01-05T23:04:05.697Z,21.17
2019-01-05T23:06:25.897Z,28.77
2019-01-05T23:08:53.350Z,25.23
2019-01-05T23:11:20.617Z,24.80
2019-01-05T23:13:40.645Z,22.10
2019-01-05T23:15:55.957Z,22.03
2019-01-05T23:18:15.753Z,21.07
2019-01-05T23:20:46.160Z,27.33
2019-01-05T23:23:06.020Z,22.30
2019-01-05T23:25:26.237Z,23.57
2019-01-05T23:27:46.464Z,20.70
2019-01-05T23:30:08.569Z,20.50
2019-01-05T23:32:30.148Z,19.80
2019-01-05T23:34:43.484Z,16.10
2019-01-05T23:37:03.569Z,17.33
2019-01-05T23:39:24.305Z,15.23
2019-01-05T23:41:51.784Z,19.27
2019-01-05T23:44:09.562Z,14.90
2019-01-05T23:46:30.452Z,34.17
2019-01-05T23:48:50.711Z,28.40
2019-01-05T23:51:15.524Z,36.70
2019-01-05T23:53:42.860Z,19.97
2019-01-05T23:56:06.827Z,15.50
2019-01-05T23:58:54.546Z,16.67
